createdAt,value
2023-02-27T00:01:21.107Z,99.90
2023-02-27T00:03:48.371Z,99.90
2023-02-27T00:06:17.774Z,99.90
2023-02-27T00:08:45.051Z,99.90
2023-02-27T00:11:12.494Z,99.90
2023-02-27T00:13:40.103Z,99.90
2023-02-27T00:16:11.212Z,99.90
2023-02-27T00:18:39.688Z,99.90
2023-02-27T00:21:06.810Z,99.90
2023-02-27T00:23:33.921Z,99.90
2023-02-27T00:26:01.421Z,99.90
2023-02-27T00:28:28.741Z,99.90
2023-02-27T00:30:56.085Z,99.90
2023-02-27T00:33:23.633Z,99.90
2023-02-27T00:35:59.796Z,99.90
2023-02-27T00:38:28.474Z,99.90
2023-02-27T00:40:59.030Z,99.90
2023-02-27T00:43:26.677Z,99.90
2023-02-27T00:45:53.823Z,99.90
2023-02-27T00:48:21.553Z,99.90
2023-02-27T00:50:50.693Z,99.90
2023-02-27T00:53:18.181Z,99.90
2023-02-27T00:55:45.315Z,99.90
2023-02-27T00:58:12.839Z,99.90
2023-02-27T01:00:40.000Z,99.90
2023-02-27T01:03:07.140Z,99.90
2023-02-27T01:05:34.421Z,99.90
2023-02-27T01:08:01.583Z,99.90
2023-02-27T01:10:29.620Z,99.90
2023-02-27T01:12:56.765Z,99.90
2023-02-27T01:15:23.885Z,99.90
2023-02-27T01:17:51.548Z,99.90
2023-02-27T01:20:19.061Z,99.90
2023-02-27T01:22:46.188Z,99.90
2023-02-27T01:25:13.642Z,99.90
2023-02-27T01:27:40.928Z,99.90
2023-02-27T01:30:11.263Z,99.90
2023-02-27T01:32:38.616Z,99.90
2023-02-27T01:35:06.554Z,99.90
2023-02-27T01:37:33.679Z,99.90
2023-02-27T01:40:00.782Z,99.90
2023-02-27T01:42:29.279Z,99.90
2023-02-27T01:45:12.420Z,99.90
2023-02-27T01:47:48.461Z,99.90
2023-02-27T01:50:18.564Z,99.90
2023-02-27T01:52:54.620Z,99.90
2023-02-27T01:55:23.117Z,99.90
2023-02-27T01:57:52.016Z,99.90
2023-02-27T02:00:20.090Z,99.90
2023-02-27T02:03:16.049Z,99.90
2023-02-27T02:05:47.038Z,99.90
2023-02-27T02:08:20.210Z,99.90
2023-02-27T02:10:51.363Z,99.90
2023-02-27T02:13:20.847Z,99.90
2023-02-27T02:16:12.286Z,99.90
2023-02-27T02:19:30.043Z,99.90
2023-02-27T02:22:43.909Z,99.90
2023-02-27T02:26:00.835Z,99.90
2023-02-27T02:28:33.829Z,99.90
2023-02-27T02:31:48.032Z,99.90
2023-02-27T02:34:47.225Z,99.90
2023-02-27T02:37:23.125Z,99.90
2023-02-27T02:40:14.600Z,99.90
2023-02-27T02:42:59.034Z,99.90
2023-02-27T02:46:16.714Z,99.90
2023-02-27T02:49:26.317Z,99.90
2023-02-27T02:52:25.891Z,99.90
2023-02-27T02:55:00.332Z,99.90
2023-02-27T02:57:38.750Z,99.90
2023-02-27T03:00:19.363Z,99.90
2023-02-27T03:02:55.259Z,99.90
2023-02-27T03:05:34.525Z,99.90
2023-02-27T03:08:28.352Z,99.90
2023-02-27T03:11:03.875Z,99.90
2023-02-27T03:13:44.767Z,99.90
2023-02-27T03:16:41.834Z,99.90
2023-02-27T03:19:21.143Z,99.90
2023-02-27T03:22:05.651Z,99.90
2023-02-27T03:24:47.184Z,99.90
2023-02-27T03:27:17.653Z,99.90
2023-02-27T03:30:15.935Z,99.90
2023-02-27T03:32:56.887Z,99.90
2023-02-27T03:35:47.200Z,99.90
2023-02-27T03:38:40.750Z,99.90
2023-02-27T03:41:35.200Z,99.90
2023-02-27T03:44:44.195Z,99.90
2023-02-27T03:47:11.314Z,99.90
2023-02-27T03:49:38.896Z,99.90
2023-02-27T03:52:06.202Z,99.90
2023-02-27T03:54:42.088Z,99.90
2023-02-27T03:57:09.405Z,99.90
2023-02-27T03:59:38.454Z,99.90
2023-02-27T04:02:07.174Z,99.90
2023-02-27T04:04:36.097Z,99.90
2023-02-27T04:07:30.226Z,99.90
2023-02-27T04:10:15.877Z,99.90
2023-02-27T04:12:51.907Z,99.90
2023-02-27T04:15:30.052Z,99.90
2023-02-27T04:18:36.534Z,99.90
2023-02-27T04:21:15.504Z,99.90
2023-02-27T04:23:49.380Z,99.90
2023-02-27T04:26:39.541Z,99.90
2023-02-27T04:29:30.422Z,99.90
2023-02-27T04:32:20.158Z,99.90
2023-02-27T04:34:57.447Z,99.90
2023-02-27T04:37:32.927Z,99.90
2023-02-27T04:40:05.719Z,99.90
2023-02-27T04:42:40.230Z,99.90
2023-02-27T04:45:15.153Z,99.90
2023-02-27T04:47:59.670Z,99.90
2023-02-27T04:50:38.249Z,99.90
2023-02-27T04:53:31.311Z,99.90
2023-02-27T04:56:08.659Z,99.90
2023-02-27T04:58:44.196Z,99.90
2023-02-27T05:01:35.068Z,99.90
2023-02-27T05:04:07.317Z,99.90
2023-02-27T05:06:39.794Z,99.90
2023-02-27T05:09:32.678Z,99.90
2023-02-27T05:12:20.260Z,99.90
2023-02-27T05:15:05.637Z,99.90
2023-02-27T05:17:41.202Z,99.90
2023-02-27T05:20:11.384Z,99.90
2023-02-27T05:23:10.725Z,99.90
2023-02-27T05:25:52.267Z,99.90
2023-02-27T05:28:41.986Z,99.90
2023-02-27T05:31:29.868Z,99.90
2023-02-27T05:34:09.952Z,99.90
2023-02-27T05:37:03.575Z,99.90
2023-02-27T05:39:36.281Z,99.90
2023-02-27T05:42:13.471Z,99.90
2023-02-27T05:44:55.205Z,99.90
2023-02-27T05:47:28.992Z,99.90
2023-02-27T05:50:35.738Z,99.90
2023-02-27T05:53:11.267Z,99.90
2023-02-27T05:55:43.083Z,99.90
2023-02-27T05:58:26.291Z,99.90
2023-02-27T06:01:06.876Z,99.90
2023-02-27T06:03:36.559Z,99.90
2023-02-27T06:06:08.971Z,99.90
2023-02-27T06:08:36.528Z,99.90
2023-02-27T06:11:03.757Z,99.90
2023-02-27T06:13:30.846Z,99.90
2023-02-27T06:15:57.963Z,99.90
2023-02-27T06:18:25.048Z,99.90
2023-02-27T06:20:52.262Z,99.90
2023-02-27T06:23:19.817Z,99.90
2023-02-27T06:25:48.653Z,99.90
2023-02-27T06:28:16.273Z,99.90
2023-02-27T06:30:45.329Z,99.90
2023-02-27T06:33:13.685Z,99.90
2023-02-27T06:35:40.815Z,99.90
2023-02-27T06:38:08.076Z,99.90
2023-02-27T06:40:35.280Z,99.90
2023-02-27T06:43:02.518Z,99.90
2023-02-27T06:45:29.561Z,99.90
2023-02-27T06:47:56.672Z,99.90
2023-02-27T06:50:23.833Z,99.90
2023-02-27T06:52:51.036Z,99.90
2023-02-27T06:55:20.926Z,99.90
2023-02-27T06:57:48.912Z,99.90
2023-02-27T07:00:17.136Z,99.90
2023-02-27T07:02:44.516Z,99.90
2023-02-27T07:05:14.242Z,99.90
2023-02-27T07:07:41.405Z,99.90
2023-02-27T07:10:14.212Z,99.90
2023-02-27T07:12:41.746Z,99.90
2023-02-27T07:15:10.499Z,99.90
2023-02-27T07:17:38.448Z,99.90
2023-02-27T07:20:09.241Z,99.90
2023-02-27T07:22:37.286Z,99.90
2023-02-27T07:25:05.376Z,99.90
2023-02-27T07:27:33.533Z,99.90
2023-02-27T07:30:01.270Z,99.90
2023-02-27T07:32:28.767Z,99.90
2023-02-27T07:34:55.946Z,99.90
2023-02-27T07:37:23.119Z,99.90
2023-02-27T07:39:50.705Z,99.90
2023-02-27T07:42:18.379Z,99.90
2023-02-27T07:44:45.474Z,99.90
2023-02-27T07:47:12.724Z,99.90
2023-02-27T07:49:39.908Z,99.90
2023-02-27T07:52:08.327Z,99.90
2023-02-27T07:54:37.581Z,99.90
2023-02-27T07:57:05.832Z,99.90
2023-02-27T07:59:33.338Z,99.90
2023-02-27T08:02:00.494Z,99.90
2023-02-27T08:04:27.620Z,99.90
2023-02-27T08:06:54.751Z,99.90
2023-02-27T08:09:22.047Z,99.90
2023-02-27T08:11:49.434Z,99.90
2023-02-27T08:14:16.637Z,99.90
2023-02-27T08:16:43.780Z,99.90
2023-02-27T08:19:14.211Z,99.90
2023-02-27T08:21:41.905Z,99.90
2023-02-27T08:24:09.059Z,99.90
2023-02-27T08:26:36.550Z,99.90
2023-02-27T08:29:03.882Z,99.90
2023-02-27T08:31:31.034Z,99.90
2023-02-27T08:34:09.478Z,99.90
2023-02-27T08:36:38.089Z,99.90
2023-02-27T08:39:07.429Z,99.90
2023-02-27T08:41:35.412Z,99.90
2023-02-27T08:44:02.898Z,99.90
2023-02-27T08:46:30.317Z,99.90
2023-02-27T08:48:57.590Z,99.90
2023-02-27T08:51:24.788Z,99.90
2023-02-27T08:53:51.986Z,99.90
2023-02-27T08:56:19.077Z,99.90
2023-02-27T08:58:46.225Z,99.90
2023-02-27T09:01:13.411Z,99.90
2023-02-27T09:03:41.469Z,99.90
2023-02-27T09:06:08.798Z,99.90
2023-02-27T09:08:36.074Z,99.90
2023-02-27T09:11:03.435Z,99.90
2023-02-27T09:13:31.028Z,99.90
2023-02-27T09:15:58.206Z,99.90
2023-02-27T09:18:25.381Z,99.90
2023-02-27T09:20:52.713Z,99.90
2023-02-27T09:23:19.995Z,99.90
2023-02-27T09:25:48.067Z,99.90
2023-02-27T09:28:15.959Z,99.90
2023-02-27T09:30:43.412Z,99.90
2023-02-27T09:33:10.554Z,99.90
2023-02-27T09:35:37.869Z,99.70
2023-02-27T09:38:05.083Z,99.70
2023-02-27T09:40:39.916Z,99.30
2023-02-27T09:43:23.292Z,98.70
2023-02-27T09:45:56.581Z,98.60
2023-02-27T09:48:34.537Z,98.40
2023-02-27T09:51:03.003Z,98.60
2023-02-27T09:53:41.277Z,99.00
2023-02-27T09:56:26.374Z,99.60
2023-02-27T09:59:39.857Z,98.20
2023-02-27T10:02:36.610Z,98.20
2023-02-27T10:05:25.002Z,98.50
2023-02-27T10:08:48.774Z,99.40
2023-02-27T10:11:31.370Z,98.00
2023-02-27T10:14:17.113Z,97.70
2023-02-27T10:16:45.016Z,97.50
2023-02-27T10:19:26.381Z,98.20
2023-02-27T10:21:56.724Z,97.00
2023-02-27T10:24:42.738Z,97.30
2023-02-27T10:27:19.172Z,96.90
2023-02-27T10:29:46.762Z,97.10
2023-02-27T10:32:24.944Z,96.20
2023-02-27T10:35:09.717Z,96.50
2023-02-27T10:37:48.163Z,96.20
2023-02-27T10:40:17.864Z,96.40
2023-02-27T10:42:45.046Z,96.50
2023-02-27T10:45:16.784Z,97.00
2023-02-27T10:47:44.642Z,97.20
2023-02-27T10:50:38.279Z,98.20
2023-02-27T10:53:18.904Z,95.60
2023-02-27T10:56:02.735Z,95.90
2023-02-27T10:58:36.819Z,96.20
2023-02-27T11:01:11.042Z,95.90
2023-02-27T11:03:41.808Z,96.80
2023-02-27T11:06:26.153Z,96.30
2023-02-27T11:09:28.199Z,95.50
2023-02-27T11:12:10.838Z,95.60
2023-02-27T11:14:51.181Z,95.60
2023-02-27T11:17:28.723Z,95.30
2023-02-27T11:19:58.706Z,94.90
2023-02-27T11:22:30.283Z,95.00
2023-02-27T11:25:23.262Z,94.60
2023-02-27T11:27:52.182Z,95.00
2023-02-27T11:30:28.583Z,95.00
2023-02-27T11:32:59.814Z,94.80
2023-02-27T11:35:38.477Z,94.30
2023-02-27T11:38:20.824Z,94.00
2023-02-27T11:41:02.272Z,94.10
2023-02-27T11:43:42.747Z,93.40
2023-02-27T11:46:45.999Z,93.10
2023-02-27T11:49:56.624Z,93.50
2023-02-27T11:53:27.237Z,93.10
2023-02-27T11:55:59.529Z,93.50
2023-02-27T11:58:35.457Z,93.30
2023-02-27T12:01:27.901Z,93.30
2023-02-27T12:04:29.030Z,93.20
2023-02-27T12:07:21.200Z,93.50
2023-02-27T12:10:03.247Z,92.50
2023-02-27T12:12:45.411Z,92.60
2023-02-27T12:15:40.169Z,92.60
2023-02-27T12:18:25.787Z,92.80
2023-02-27T12:20:59.248Z,93.40
2023-02-27T12:23:53.788Z,93.70
2023-02-27T12:26:34.683Z,92.60
2023-02-27T12:29:33.083Z,92.80
2023-02-27T12:32:27.990Z,92.50
2023-02-27T12:35:26.022Z,92.80
2023-02-27T12:37:54.005Z,92.30
2023-02-27T12:40:53.654Z,92.70
2023-02-27T12:43:38.632Z,93.30
2023-02-27T12:46:47.747Z,93.80
2023-02-27T12:49:52.114Z,93.10
2023-02-27T12:52:49.815Z,93.20
2023-02-27T12:55:42.664Z,93.10
2023-02-27T12:58:19.960Z,92.60
2023-02-27T13:00:54.802Z,91.20
2023-02-27T13:04:01.989Z,93.50
2023-02-27T13:06:43.508Z,91.40
2023-02-27T13:09:33.709Z,91.50
2023-02-27T13:12:08.980Z,91.00
2023-02-27T13:14:46.547Z,92.20
2023-02-27T13:17:54.689Z,90.80
2023-02-27T13:23:15.443Z,90.50
2023-02-27T13:25:50.962Z,91.00
2023-02-27T13:28:27.849Z,91.30
2023-02-27T13:31:09.117Z,91.50
2023-02-27T13:33:55.549Z,91.70
2023-02-27T13:36:30.615Z,91.50
2023-02-27T13:38:57.844Z,91.70
2023-02-27T13:41:24.910Z,91.20
2023-02-27T13:44:16.153Z,92.10
2023-02-27T13:46:43.294Z,92.60
2023-02-27T13:49:20.120Z,91.30
2023-02-27T13:51:56.757Z,91.40
2023-02-27T13:54:32.599Z,92.00
2023-02-27T13:57:09.372Z,92.40
2023-02-27T13:59:44.268Z,91.00
2023-02-27T14:02:11.426Z,90.70
2023-02-27T14:04:46.721Z,90.30
2023-02-27T14:07:23.659Z,90.00
2023-02-27T14:10:04.293Z,89.80
2023-02-27T14:12:45.936Z,89.20
2023-02-27T14:15:22.560Z,89.50
2023-02-27T14:18:50.961Z,90.30
2023-02-27T14:22:02.998Z,88.90
2023-02-27T14:24:49.752Z,86.50
2023-02-27T14:27:45.953Z,84.80
2023-02-27T14:30:41.073Z,83.30
2023-02-27T14:33:33.398Z,81.90
2023-02-27T14:36:13.950Z,83.30
2023-02-27T14:38:41.315Z,84.50
2023-02-27T14:41:17.762Z,85.70
2023-02-27T14:43:55.318Z,82.40
2023-02-27T14:46:40.199Z,82.10
2023-02-27T14:49:25.955Z,83.20
2023-02-27T14:51:53.739Z,83.70
2023-02-27T14:54:26.717Z,82.70
2023-02-27T14:57:00.725Z,83.10
2023-02-27T14:59:40.980Z,83.90
2023-02-27T15:02:30.652Z,84.80
2023-02-27T15:05:03.763Z,84.50
2023-02-27T15:07:35.504Z,84.00
2023-02-27T15:10:08.325Z,84.70
2023-02-27T15:12:40.295Z,85.40
2023-02-27T15:15:10.768Z,85.80
2023-02-27T15:17:41.904Z,85.30
2023-02-27T15:20:32.489Z,85.60
2023-02-27T15:23:26.193Z,86.80
2023-02-27T15:25:59.160Z,86.20
2023-02-27T15:28:38.186Z,86.50
2023-02-27T15:31:11.234Z,87.00
2023-02-27T15:33:38.612Z,88.00
2023-02-27T15:36:06.416Z,88.40
2023-02-27T15:38:36.437Z,88.70
2023-02-27T15:41:05.437Z,87.80
2023-02-27T15:43:33.296Z,87.80
2023-02-27T15:46:00.687Z,88.60
2023-02-27T15:48:29.507Z,89.00
2023-02-27T15:51:04.343Z,89.20
2023-02-27T15:53:33.994Z,89.40
2023-02-27T15:56:06.678Z,89.80
2023-02-27T15:58:38.837Z,89.70
2023-02-27T16:01:13.836Z,89.50
2023-02-27T16:03:46.491Z,89.40
2023-02-27T16:06:39.879Z,89.80
2023-02-27T16:09:35.091Z,89.60
2023-02-27T16:12:33.367Z,90.10
2023-02-27T16:15:24.079Z,89.70
2023-02-27T16:17:56.676Z,89.70
2023-02-27T16:20:48.009Z,88.80
2023-02-27T16:23:22.760Z,88.50
2023-02-27T16:26:33.087Z,89.00
2023-02-27T16:29:17.345Z,88.70
2023-02-27T16:31:52.804Z,88.10
2023-02-27T16:34:44.243Z,88.40
2023-02-27T16:37:37.334Z,88.40
2023-02-27T16:40:22.865Z,88.40
2023-02-27T16:42:51.804Z,88.90
2023-02-27T16:45:28.858Z,89.30
2023-02-27T16:47:59.443Z,89.90
2023-02-27T16:50:42.959Z,89.90
2023-02-27T16:53:10.262Z,90.20
2023-02-27T16:55:43.509Z,90.50
2023-02-27T16:58:17.795Z,90.70
2023-02-27T17:00:45.335Z,90.90
2023-02-27T17:03:12.809Z,91.10
2023-02-27T17:05:41.428Z,91.30
2023-02-27T17:08:11.205Z,91.40
2023-02-27T17:10:38.396Z,91.40
2023-02-27T17:13:06.173Z,91.50
2023-02-27T17:15:33.306Z,91.70
2023-02-27T17:18:00.462Z,91.80
2023-02-27T17:20:30.176Z,91.90
2023-02-27T17:22:57.820Z,92.00
2023-02-27T17:25:25.539Z,92.00
2023-02-27T17:27:52.942Z,92.10
2023-02-27T17:30:20.998Z,92.20
2023-02-27T17:32:48.153Z,92.20
2023-02-27T17:35:15.290Z,92.30
2023-02-27T17:37:42.456Z,92.50
2023-02-27T17:40:12.263Z,92.50
2023-02-27T17:42:39.961Z,92.60
2023-02-27T17:45:08.820Z,92.60
2023-02-27T17:47:36.252Z,92.70
2023-02-27T17:50:05.310Z,93.20
2023-02-27T17:52:35.932Z,93.00
2023-02-27T17:55:03.787Z,93.00
2023-02-27T17:57:30.946Z,93.20
2023-02-27T17:59:58.041Z,93.30
2023-02-27T18:02:25.249Z,93.40
2023-02-27T18:04:53.070Z,93.50
2023-02-27T18:07:20.173Z,93.60
2023-02-27T18:09:47.301Z,93.70
2023-02-27T18:12:14.446Z,93.70
2023-02-27T18:14:41.639Z,94.20
2023-02-27T18:17:12.166Z,93.70
2023-02-27T18:19:43.342Z,93.90
2023-02-27T18:22:11.803Z,94.00
2023-02-27T18:24:38.959Z,94.30
2023-02-27T18:27:06.164Z,94.50
2023-02-27T18:29:33.434Z,94.50
2023-02-27T18:32:00.644Z,94.50
2023-02-27T18:34:27.885Z,94.40
2023-02-27T18:36:57.839Z,94.60
2023-02-27T18:39:25.382Z,94.80
2023-02-27T18:41:52.533Z,95.00
2023-02-27T18:44:19.693Z,95.20
2023-02-27T18:46:46.826Z,95.40
2023-02-27T18:49:14.926Z,95.70
2023-02-27T18:51:42.750Z,95.80
2023-02-27T18:54:13.730Z,95.80
2023-02-27T18:56:41.333Z,95.90
2023-02-27T18:59:08.443Z,96.00
2023-02-27T19:01:38.551Z,96.10
2023-02-27T19:04:09.558Z,96.20
2023-02-27T19:06:41.030Z,96.30
2023-02-27T19:09:16.263Z,96.60
2023-02-27T19:11:46.254Z,96.50
2023-02-27T19:14:16.012Z,96.60
2023-02-27T19:16:44.275Z,96.50
2023-02-27T19:19:11.902Z,96.40
2023-02-27T19:21:39.732Z,96.50
2023-02-27T19:24:08.103Z,96.60
2023-02-27T19:26:35.413Z,96.80
2023-02-27T19:29:03.382Z,96.60
2023-02-27T19:31:31.335Z,96.90
2023-02-27T19:33:58.772Z,97.10
2023-02-27T19:36:28.970Z,97.20
2023-02-27T19:38:57.865Z,97.20
2023-02-27T19:41:26.443Z,97.20
2023-02-27T19:43:54.553Z,97.40
2023-02-27T19:46:30.453Z,97.70
2023-02-27T19:49:00.998Z,97.80
2023-02-27T19:51:28.263Z,98.10
2023-02-27T19:53:55.610Z,98.10
2023-02-27T19:56:29.029Z,98.20
2023-02-27T19:58:56.560Z,98.40
2023-02-27T20:01:28.298Z,98.50
2023-02-27T20:03:56.723Z,98.50
2023-02-27T20:06:27.646Z,98.60
2023-02-27T20:08:55.510Z,98.60
2023-02-27T20:11:22.818Z,98.60
2023-02-27T20:13:51.974Z,98.70
2023-02-27T20:16:24.082Z,98.80
2023-02-27T20:18:51.471Z,98.90
2023-02-27T20:21:22.792Z,98.90
2023-02-27T20:23:54.101Z,99.00
2023-02-27T20:26:26.530Z,99.00
2023-02-27T20:28:56.850Z,99.10
2023-02-27T20:31:28.516Z,99.20
2023-02-27T20:33:57.894Z,99.20
2023-02-27T20:36:25.211Z,99.30
2023-02-27T20:38:52.780Z,99.30
2023-02-27T20:41:22.761Z,99.70
2023-02-27T20:43:50.420Z,99.50
2023-02-27T20:46:23.083Z,99.40
2023-02-27T20:48:51.040Z,99.50
2023-02-27T20:51:25.255Z,99.50
2023-02-27T20:53:56.255Z,99.60
2023-02-27T20:56:30.114Z,99.80
2023-02-27T20:58:59.703Z,99.60
2023-02-27T21:01:27.819Z,99.70
2023-02-27T21:03:57.694Z,99.70
2023-02-27T21:06:26.411Z,99.90
2023-02-27T21:08:56.353Z,99.90
2023-02-27T21:11:27.502Z,99.90
2023-02-27T21:14:03.107Z,99.60
2023-02-27T21:16:30.329Z,99.90
2023-02-27T21:18:57.854Z,99.90
2023-02-27T21:21:30.522Z,99.90
2023-02-27T21:23:58.991Z,99.90
2023-02-27T21:26:29.768Z,99.60
2023-02-27T21:29:12.393Z,99.60
2023-02-27T21:31:45.098Z,99.70
2023-02-27T21:34:18.038Z,99.70
2023-02-27T21:36:46.635Z,99.60
2023-02-27T21:39:23.665Z,99.50
2023-02-27T21:41:50.872Z,99.50
2023-02-27T21:44:21.218Z,99.40
2023-02-27T21:46:48.440Z,99.40
2023-02-27T21:49:25.279Z,99.40
2023-02-27T21:51:52.627Z,99.40
2023-02-27T21:54:20.903Z,99.30
2023-02-27T21:56:49.616Z,99.50
2023-02-27T21:59:19.388Z,99.60
2023-02-27T22:01:48.241Z,99.60
2023-02-27T22:04:19.088Z,99.40
2023-02-27T22:06:48.356Z,99.30
2023-02-27T22:09:16.082Z,99.20
2023-02-27T22:11:43.338Z,99.20
2023-02-27T22:14:11.707Z,99.60
2023-02-27T22:16:38.987Z,99.50
2023-02-27T22:19:20.017Z,99.60
2023-02-27T22:21:47.995Z,99.00
2023-02-27T22:24:15.498Z,99.10
2023-02-27T22:26:44.567Z,99.10
2023-02-27T22:29:11.787Z,99.10
2023-02-27T22:31:39.394Z,98.80
2023-02-27T22:34:12.248Z,98.90
2023-02-27T22:36:41.234Z,98.80
2023-02-27T22:39:08.575Z,98.80
2023-02-27T22:41:39.719Z,98.70
2023-02-27T22:44:09.489Z,99.30
2023-02-27T22:46:43.556Z,98.90
2023-02-27T22:49:22.989Z,99.30
2023-02-27T22:51:52.044Z,99.00
2023-02-27T22:54:22.547Z,99.00
2023-02-27T22:56:52.644Z,99.10
2023-02-27T22:59:20.714Z,99.20
2023-02-27T23:01:48.812Z,99.30
2023-02-27T23:04:19.347Z,99.30
2023-02-27T23:06:46.475Z,99.40
2023-02-27T23:09:20.442Z,99.40
2023-02-27T23:11:47.812Z,99.50
2023-02-27T23:14:15.406Z,99.70
2023-02-27T23:16:46.779Z,99.60
2023-02-27T23:19:19.993Z,99.50
2023-02-27T23:21:47.587Z,99.50
2023-02-27T23:24:19.250Z,99.40
2023-02-27T23:26:52.056Z,99.40
2023-02-27T23:29:20.180Z,99.50
2023-02-27T23:31:48.033Z,99.20
2023-02-27T23:34:15.203Z,99.20
2023-02-27T23:36:42.446Z,99.10
2023-02-27T23:39:09.700Z,99.10
2023-02-27T23:41:36.875Z,99.30
2023-02-27T23:44:22.959Z,99.10
2023-02-27T23:46:50.086Z,99.10
2023-02-27T23:49:17.174Z,99.00
2023-02-27T23:51:44.448Z,98.90
2023-02-27T23:54:11.838Z,98.80
2023-02-27T23:56:38.996Z,98.70
2023-02-27T23:59:07.588Z,98.60
